createdAt,value
2023-03-17T00:02:05.331Z,100010.71
2023-03-17T00:04:40.640Z,100015.80
2023-03-17T00:07:15.667Z,100018.35
2023-03-17T00:09:48.916Z,100016.66
2023-03-17T00:12:17.928Z,100016.76
2023-03-17T00:14:48.946Z,100015.91
2023-03-17T00:17:17.788Z,100021.48
2023-03-17T00:19:48.736Z,100023.52
2023-03-17T00:22:18.519Z,100024.85
2023-03-17T00:24:48.189Z,100024.89
2023-03-17T00:27:19.357Z,100024.85
2023-03-17T00:29:50.436Z,100022.42
2023-03-17T00:32:20.804Z,100029.59
2023-03-17T00:34:56.689Z,100029.79
2023-03-17T00:37:27.728Z,100031.08
2023-03-17T00:39:59.383Z,100026.19
2023-03-17T00:42:28.779Z,100033.84
2023-03-17T00:44:58.506Z,100031.59
2023-03-17T00:47:27.649Z,100031.42
2023-03-17T00:49:57.988Z,100032.05
2023-03-17T00:52:34.540Z,100039.76
2023-03-17T00:55:05.349Z,100037.05
2023-03-17T00:57:34.788Z,100037.42
2023-03-17T01:00:05.051Z,100036.36
2023-03-17T01:02:36.522Z,100034.67
2023-03-17T01:05:08.002Z,100032.44
2023-03-17T01:07:39.225Z,100035.16
2023-03-17T01:10:17.208Z,100030.61
2023-03-17T01:12:46.391Z,100034.35
2023-03-17T01:15:15.969Z,100033.83
2023-03-17T01:17:46.257Z,100037.16
2023-03-17T01:20:24.345Z,100042.61
2023-03-17T01:22:53.116Z,100038.84
2023-03-17T01:25:21.803Z,100043.36
2023-03-17T01:27:51.936Z,100041.17
2023-03-17T01:30:32.532Z,100046.44
2023-03-17T01:33:04.135Z,100046.64
2023-03-17T01:35:35.009Z,100048.58
2023-03-17T01:38:05.445Z,100052.05
2023-03-17T01:40:37.147Z,100053.86
2023-03-17T01:43:11.517Z,100051.36
2023-03-17T01:46:07.546Z,100053.03
2023-03-17T01:48:39.017Z,100048.88
2023-03-17T01:51:08.275Z,100049.59
2023-03-17T01:53:37.571Z,100051.55
2023-03-17T01:56:09.091Z,100055.08
2023-03-17T01:58:38.528Z,100055.46
2023-03-17T02:01:08.136Z,100054.11
2023-03-17T02:03:38.090Z,100053.00
2023-03-17T02:06:08.410Z,100058.48
2023-03-17T02:08:39.861Z,100063.73
2023-03-17T02:11:10.021Z,100062.00
2023-03-17T02:13:38.972Z,100067.77
2023-03-17T02:16:17.876Z,100073.91
2023-03-17T02:18:48.982Z,100079.69
2023-03-17T02:21:31.621Z,100084.10
2023-03-17T02:24:36.081Z,100088.05
2023-03-17T02:27:16.996Z,100098.80
2023-03-17T02:29:46.603Z,100099.52
2023-03-17T02:32:16.079Z,100102.36
2023-03-17T02:34:47.293Z,100104.61
2023-03-17T02:37:17.476Z,100107.92
2023-03-17T02:39:46.774Z,100109.17
2023-03-17T02:42:15.380Z,100110.66
2023-03-17T02:44:44.304Z,100108.67
2023-03-17T02:47:17.959Z,100111.58
2023-03-17T02:49:46.939Z,100112.70
2023-03-17T02:52:16.364Z,100117.63
2023-03-17T02:54:44.935Z,100119.62
2023-03-17T02:57:13.519Z,100114.27
2023-03-17T02:59:46.489Z,100118.39
2023-03-17T03:02:18.514Z,100120.18
2023-03-17T03:04:48.643Z,100120.15
2023-03-17T03:07:30.989Z,100120.98
2023-03-17T03:10:00.967Z,100121.66
2023-03-17T03:12:37.369Z,100122.42
2023-03-17T03:15:09.939Z,100125.69
2023-03-17T03:17:39.592Z,100127.17
2023-03-17T03:20:11.622Z,100126.52
2023-03-17T03:22:41.491Z,100123.89
2023-03-17T03:25:11.251Z,100125.69
2023-03-17T03:27:42.418Z,100124.20
2023-03-17T03:30:12.597Z,100127.80
2023-03-17T03:32:44.795Z,100133.81
2023-03-17T03:35:17.168Z,100135.45
2023-03-17T03:37:50.565Z,100136.17
2023-03-17T03:40:21.147Z,100140.95
2023-03-17T03:42:51.132Z,100143.92
2023-03-17T03:45:20.685Z,100146.75
2023-03-17T03:47:49.354Z,100145.17
2023-03-17T03:50:19.994Z,100145.65
2023-03-17T03:52:49.607Z,100151.12
2023-03-17T03:55:19.508Z,100156.23
2023-03-17T03:57:51.248Z,100156.48
2023-03-17T04:00:21.698Z,100160.14
2023-03-17T04:02:54.342Z,100161.89
2023-03-17T04:05:24.395Z,100167.65
2023-03-17T04:07:59.105Z,100164.56
2023-03-17T04:10:30.263Z,100167.50
2023-03-17T04:13:05.644Z,100174.15
2023-03-17T04:15:36.225Z,100173.82
2023-03-17T04:18:05.846Z,100181.51
2023-03-17T04:20:37.425Z,100185.23
2023-03-17T04:23:07.356Z,100183.98
2023-03-17T04:25:43.474Z,100184.27
2023-03-17T04:28:16.676Z,100187.91
2023-03-17T04:30:51.870Z,100189.08
2023-03-17T04:33:20.993Z,100191.98
2023-03-17T04:35:50.270Z,100194.11
2023-03-17T04:38:25.225Z,100196.60
2023-03-17T04:40:57.829Z,100201.30
2023-03-17T04:43:30.637Z,100205.52
2023-03-17T04:46:06.236Z,100208.09
2023-03-17T04:48:38.081Z,100208.30
2023-03-17T04:51:11.488Z,100210.56
2023-03-17T04:53:43.161Z,100215.59
2023-03-17T04:56:13.716Z,100215.73
2023-03-17T04:58:47.573Z,100224.21
2023-03-17T05:01:18.835Z,100229.13
2023-03-17T05:03:47.636Z,100228.30
2023-03-17T05:06:17.310Z,100228.48
2023-03-17T05:08:46.465Z,100225.98
2023-03-17T05:11:17.681Z,100226.81
2023-03-17T05:13:48.179Z,100228.61
2023-03-17T05:16:18.152Z,100230.76
2023-03-17T05:18:49.906Z,100231.02
2023-03-17T05:21:19.013Z,100233.95
2023-03-17T05:23:47.287Z,100237.66
2023-03-17T05:26:16.163Z,100244.64
2023-03-17T05:28:48.726Z,100247.42
2023-03-17T05:31:20.584Z,100248.09
2023-03-17T05:33:51.742Z,100247.81
2023-03-17T05:36:21.511Z,100244.33
2023-03-17T05:38:52.799Z,100246.60
2023-03-17T05:41:22.590Z,100248.65
2023-03-17T05:43:52.815Z,100254.82
2023-03-17T05:46:30.260Z,100261.63
2023-03-17T05:49:02.005Z,100265.56
2023-03-17T05:51:31.820Z,100267.86
2023-03-17T05:54:05.680Z,100268.34
2023-03-17T05:56:35.031Z,100269.52
2023-03-17T05:59:09.460Z,100270.54
2023-03-17T06:01:40.336Z,100273.00
2023-03-17T06:04:13.768Z,100274.09
2023-03-17T06:06:43.980Z,100272.10
2023-03-17T06:09:19.254Z,100272.09
2023-03-17T06:11:49.114Z,100275.60
2023-03-17T06:14:19.333Z,100275.89
2023-03-17T06:17:09.592Z,100277.99
2023-03-17T06:19:49.437Z,100281.90
2023-03-17T06:22:20.095Z,100281.30
2023-03-17T06:24:56.085Z,100286.93
2023-03-17T06:27:27.935Z,100289.25
2023-03-17T06:30:00.920Z,100289.06
2023-03-17T06:32:30.809Z,100287.54
2023-03-17T06:34:59.322Z,100294.34
2023-03-17T06:37:29.341Z,100293.98
2023-03-17T06:40:06.435Z,100297.54
2023-03-17T06:42:38.447Z,100301.56
2023-03-17T06:45:10.869Z,100296.96
2023-03-17T06:47:49.183Z,100300.22
2023-03-17T06:50:19.082Z,100303.19
2023-03-17T06:52:50.556Z,100303.39
2023-03-17T06:55:22.077Z,100304.44
2023-03-17T06:58:17.897Z,100302.63
2023-03-17T07:00:47.635Z,100304.55
2023-03-17T07:03:17.172Z,100304.75
2023-03-17T07:05:47.021Z,100307.10
2023-03-17T07:08:20.522Z,100307.27
2023-03-17T07:10:51.566Z,100315.58
2023-03-17T07:13:21.198Z,100316.40
2023-03-17T07:15:53.336Z,100321.99
2023-03-17T07:18:28.044Z,100318.27
2023-03-17T07:21:04.022Z,100320.66
2023-03-17T07:23:34.659Z,100320.20
2023-03-17T07:26:05.994Z,100321.47
2023-03-17T07:28:36.538Z,100322.27
2023-03-17T07:31:11.974Z,100323.95
2023-03-17T07:33:59.560Z,100329.23
2023-03-17T07:36:29.901Z,100331.75
2023-03-17T07:38:58.856Z,100331.16
2023-03-17T07:41:29.145Z,100333.67
2023-03-17T07:44:13.718Z,100333.95
2023-03-17T07:46:55.128Z,100335.35
2023-03-17T07:49:40.403Z,100338.05
2023-03-17T07:52:13.355Z,100338.40
2023-03-17T07:54:47.689Z,100344.56
2023-03-17T07:57:18.690Z,100346.27
2023-03-17T07:59:57.328Z,100346.72
2023-03-17T08:02:26.444Z,100342.45
2023-03-17T08:04:57.234Z,100346.41
2023-03-17T08:07:44.731Z,100350.30
2023-03-17T08:10:15.334Z,100355.75
2023-03-17T08:12:54.826Z,100357.00
2023-03-17T08:15:25.789Z,100355.73
2023-03-17T08:17:58.398Z,100360.88
2023-03-17T08:20:28.280Z,100360.38
2023-03-17T08:23:13.314Z,100360.34
2023-03-17T08:26:19.584Z,100362.79
2023-03-17T08:29:08.275Z,100363.84
2023-03-17T08:31:38.758Z,100364.63
2023-03-17T08:34:07.409Z,100367.26
2023-03-17T08:36:38.744Z,100365.71
2023-03-17T08:39:15.962Z,100370.87
2023-03-17T08:42:39.529Z,100373.98
2023-03-17T08:45:11.446Z,100373.09
2023-03-17T08:47:47.218Z,100369.96
2023-03-17T08:50:23.756Z,100371.38
2023-03-17T08:52:55.364Z,100374.33
2023-03-17T08:55:36.940Z,100377.63
2023-03-17T08:58:09.898Z,100375.05
2023-03-17T09:01:02.736Z,100378.01
2023-03-17T09:03:33.387Z,100377.27
2023-03-17T09:06:32.615Z,100376.05
2023-03-17T09:09:07.228Z,100378.16
2023-03-17T09:11:51.521Z,100376.12
2023-03-17T09:14:21.771Z,100378.23
2023-03-17T09:16:54.013Z,100376.33
2023-03-17T09:19:26.561Z,100376.46
2023-03-17T09:21:59.112Z,100381.58
2023-03-17T09:24:32.988Z,100383.70
2023-03-17T09:27:11.178Z,100387.62
2023-03-17T09:29:50.058Z,100395.70
2023-03-17T09:32:22.924Z,100399.82
2023-03-17T09:35:04.208Z,100397.39
2023-03-17T09:37:36.070Z,100397.84
2023-03-17T09:40:16.001Z,100399.89
2023-03-17T09:43:28.488Z,100401.10
2023-03-17T09:46:04.023Z,100403.61
2023-03-17T09:49:13.998Z,100405.64
2023-03-17T09:51:45.306Z,100408.94
2023-03-17T09:54:31.756Z,100412.70
2023-03-17T09:57:17.089Z,100411.06
2023-03-17T09:59:55.434Z,100410.42
2023-03-17T10:02:33.816Z,100412.24
2023-03-17T10:05:30.635Z,100416.97
2023-03-17T10:08:32.089Z,100415.66
2023-03-17T10:11:02.953Z,100418.40
2023-03-17T10:14:22.328Z,100417.78
2023-03-17T10:17:52.593Z,100416.88
2023-03-17T10:21:00.233Z,100420.88
2023-03-17T10:23:45.696Z,100420.95
2023-03-17T10:26:33.218Z,100420.96
2023-03-17T10:29:08.485Z,100416.56
2023-03-17T10:31:39.801Z,100418.10
2023-03-17T10:34:20.526Z,100416.02
2023-03-17T10:36:51.683Z,100419.46
2023-03-17T10:39:25.424Z,100419.34
2023-03-17T10:42:21.516Z,100420.40
2023-03-17T10:45:07.860Z,100426.58
2023-03-17T10:47:41.277Z,100427.08
2023-03-17T10:50:12.246Z,100430.70
2023-03-17T10:52:47.693Z,100431.59
2023-03-17T10:55:22.414Z,100430.58
2023-03-17T10:58:07.614Z,100430.70
2023-03-17T11:01:28.002Z,100432.83
2023-03-17T11:03:59.544Z,100435.91
2023-03-17T11:06:44.477Z,100436.34
2023-03-17T11:09:19.663Z,100437.88
2023-03-17T11:12:07.264Z,100435.64
2023-03-17T11:14:36.776Z,100434.74
2023-03-17T11:17:34.070Z,100437.38
2023-03-17T11:20:12.234Z,100441.62
2023-03-17T11:22:59.694Z,100438.67
2023-03-17T11:25:32.362Z,100441.27
2023-03-17T11:28:32.238Z,100446.09
2023-03-17T11:31:25.311Z,100451.39
2023-03-17T11:34:02.567Z,100447.34
2023-03-17T11:36:39.553Z,100452.15
2023-03-17T11:39:13.382Z,100452.25
2023-03-17T11:41:57.253Z,100447.94
2023-03-17T11:44:52.390Z,100449.08
2023-03-17T11:47:36.772Z,100453.70
2023-03-17T11:50:34.277Z,100454.70
2023-03-17T11:53:39.564Z,100455.00
2023-03-17T11:56:49.018Z,100461.71
2023-03-17T11:59:44.218Z,100464.21
2023-03-17T12:02:44.136Z,100465.73
2023-03-17T12:05:27.724Z,100461.42
2023-03-17T12:08:14.793Z,100467.10
2023-03-17T12:10:51.616Z,100470.14
2023-03-17T12:13:37.799Z,100470.77
2023-03-17T12:16:12.051Z,100472.93
2023-03-17T12:19:01.537Z,100477.48
2023-03-17T12:21:53.020Z,100480.33
2023-03-17T12:24:50.570Z,100483.27
2023-03-17T12:27:35.223Z,100488.98
2023-03-17T12:30:46.076Z,100489.70
2023-03-17T12:33:30.256Z,100489.39
2023-03-17T12:36:01.716Z,100489.89
2023-03-17T12:38:31.886Z,100489.17
2023-03-17T12:41:28.296Z,100490.90
2023-03-17T12:44:23.681Z,100493.55
2023-03-17T12:47:10.493Z,100495.32
2023-03-17T12:50:17.459Z,100498.61
2023-03-17T12:53:30.407Z,100504.25
2023-03-17T13:03:19.299Z,100504.45
2023-03-17T13:06:04.845Z,100506.09
2023-03-17T13:08:43.148Z,100511.50
2023-03-17T13:11:25.472Z,100513.06
2023-03-17T13:13:55.840Z,100515.58
2023-03-17T13:16:38.882Z,100513.94
2023-03-17T13:19:29.082Z,100518.97
2023-03-17T13:22:02.006Z,100516.45
2023-03-17T13:24:52.093Z,100518.96
2023-03-17T13:27:31.839Z,100515.81
2023-03-17T13:30:22.368Z,100514.73
2023-03-17T13:32:56.816Z,100513.83
2023-03-17T13:35:42.025Z,100521.66
2023-03-17T13:39:18.970Z,100521.48
2023-03-17T13:42:18.101Z,100520.98
2023-03-17T13:45:54.404Z,100520.16
2023-03-17T13:48:36.668Z,100522.77
2023-03-17T13:51:16.050Z,100527.18
2023-03-17T13:53:57.263Z,100531.66
2023-03-17T13:56:49.310Z,100534.92
2023-03-17T13:59:35.938Z,100535.49
2023-03-17T14:02:24.268Z,100532.30
2023-03-17T14:04:58.939Z,100536.39
2023-03-17T14:07:36.129Z,100537.71
2023-03-17T14:10:13.333Z,100538.65
2023-03-17T14:13:01.930Z,100543.16
2023-03-17T14:15:49.946Z,100543.40
2023-03-17T14:18:24.030Z,100539.05
2023-03-17T14:20:59.430Z,100544.52
2023-03-17T14:23:33.002Z,100544.27
2023-03-17T14:26:04.399Z,100544.09
2023-03-17T14:28:37.320Z,100545.58
2023-03-17T14:31:21.164Z,100547.49
2023-03-17T14:33:55.698Z,100549.54
2023-03-17T14:36:25.692Z,100554.29
2023-03-17T14:38:57.072Z,100555.52
2023-03-17T14:41:33.851Z,100558.17
2023-03-17T14:44:05.254Z,100560.10
2023-03-17T14:46:38.148Z,100561.58
2023-03-17T14:49:23.427Z,100560.91
2023-03-17T14:52:02.073Z,100564.14
2023-03-17T14:54:36.503Z,100565.02
2023-03-17T14:57:16.060Z,100566.19
2023-03-17T15:00:04.513Z,100562.56
2023-03-17T15:02:38.982Z,100570.25
2023-03-17T15:05:17.615Z,100568.60
2023-03-17T15:08:39.777Z,100573.95
2023-03-17T15:11:36.126Z,100576.96
2023-03-17T15:14:32.455Z,100578.52
2023-03-17T15:17:19.495Z,100577.33
2023-03-17T15:20:10.005Z,100578.56
2023-03-17T15:22:44.298Z,100577.78
2023-03-17T15:25:24.164Z,100581.69
2023-03-17T15:27:57.415Z,100580.83
2023-03-17T15:30:46.205Z,100580.70
2023-03-17T15:33:37.684Z,100584.59
2023-03-17T15:36:31.785Z,100582.42
2023-03-17T15:39:04.385Z,100584.91
2023-03-17T15:41:37.723Z,100587.59
2023-03-17T15:44:14.099Z,100591.32
2023-03-17T15:46:43.156Z,100592.01
2023-03-17T15:49:18.546Z,100593.13
2023-03-17T15:51:56.860Z,100596.19
2023-03-17T15:54:27.231Z,100602.78
2023-03-17T15:57:01.760Z,100604.20
2023-03-17T15:59:33.316Z,100612.13
2023-03-17T16:02:28.606Z,100617.39
2023-03-17T16:05:02.888Z,100618.63
2023-03-17T16:07:34.133Z,100622.75
2023-03-17T16:10:35.645Z,100626.01
2023-03-17T16:13:15.892Z,100627.64
2023-03-17T16:15:57.799Z,100627.32
2023-03-17T16:18:39.443Z,100626.11
2023-03-17T16:21:19.350Z,100630.78
2023-03-17T16:23:56.171Z,100630.36
2023-03-17T16:26:27.901Z,100631.84
2023-03-17T16:29:02.079Z,100631.67
2023-03-17T16:32:14.849Z,100634.90
2023-03-17T16:34:49.421Z,100640.06
2023-03-17T16:37:18.772Z,100640.61
2023-03-17T16:39:55.663Z,100641.30
2023-03-17T16:42:27.386Z,100647.52
2023-03-17T16:45:03.982Z,100649.04
2023-03-17T16:47:37.467Z,100644.79
2023-03-17T16:50:42.741Z,100649.68
2023-03-17T16:53:33.012Z,100650.71
2023-03-17T16:56:02.141Z,100655.88
2023-03-17T16:58:53.643Z,100654.71
2023-03-17T17:01:33.319Z,100658.68
2023-03-17T17:05:02.890Z,100663.25
2023-03-17T17:07:34.440Z,100664.35
2023-03-17T17:10:11.048Z,100667.45
2023-03-17T17:12:44.924Z,100667.26
2023-03-17T17:15:21.241Z,100675.08
2023-03-17T17:17:56.368Z,100672.84
2023-03-17T17:20:41.852Z,100673.83
2023-03-17T17:23:12.368Z,100677.90
2023-03-17T17:25:51.202Z,100678.08
2023-03-17T17:28:25.895Z,100677.91
2023-03-17T17:30:53.732Z,100675.75
2023-03-17T17:33:27.271Z,100677.30
2023-03-17T17:35:56.879Z,100677.43
2023-03-17T17:38:35.047Z,100679.01
2023-03-17T17:41:11.168Z,100680.66
2023-03-17T17:43:43.220Z,100682.54
2023-03-17T17:46:18.401Z,100675.54
2023-03-17T17:48:47.429Z,100675.51
2023-03-17T17:51:21.417Z,100680.77
2023-03-17T17:53:56.890Z,100685.02
2023-03-17T17:56:27.969Z,100687.59
2023-03-17T17:58:57.322Z,100685.19
2023-03-17T18:01:25.536Z,100687.88
2023-03-17T18:03:55.866Z,100688.27
2023-03-17T18:06:28.258Z,100690.79
2023-03-17T18:08:59.793Z,100692.44
2023-03-17T18:11:34.047Z,100694.78
2023-03-17T18:14:03.050Z,100694.98
2023-03-17T18:16:31.294Z,100696.14
2023-03-17T18:19:05.752Z,100695.20
2023-03-17T18:21:36.204Z,100700.16
2023-03-17T18:24:12.317Z,100700.52
2023-03-17T18:26:42.723Z,100704.73
2023-03-17T18:29:14.521Z,100704.21
2023-03-17T18:31:49.924Z,100707.80
2023-03-17T18:34:25.862Z,100708.61
2023-03-17T18:36:59.420Z,100707.97
2023-03-17T18:39:27.119Z,100703.08
2023-03-17T18:41:57.453Z,100706.60
2023-03-17T18:44:32.686Z,100704.46
2023-03-17T18:47:01.360Z,100704.81
2023-03-17T18:49:34.343Z,100703.72
2023-03-17T18:52:04.737Z,100703.79
2023-03-17T18:54:37.514Z,100709.20
2023-03-17T18:57:05.326Z,100709.00
2023-03-17T18:59:32.691Z,100714.58
2023-03-17T19:02:01.164Z,100713.83
2023-03-17T19:04:39.302Z,100712.34
2023-03-17T19:07:09.391Z,100713.02
2023-03-17T19:09:45.581Z,100713.53
2023-03-17T19:12:14.311Z,100717.64
2023-03-17T19:14:44.209Z,100721.20
2023-03-17T19:17:15.687Z,100721.73
2023-03-17T19:19:50.240Z,100722.77
2023-03-17T19:22:18.202Z,100719.02
2023-03-17T19:24:50.429Z,100717.03
2023-03-17T19:27:24.181Z,100719.35
2023-03-17T19:30:01.977Z,100715.80
2023-03-17T19:32:29.666Z,100712.81
2023-03-17T19:34:58.205Z,100717.29
2023-03-17T19:37:26.794Z,100723.35
2023-03-17T19:40:00.387Z,100722.30
2023-03-17T19:42:32.118Z,100725.46
2023-03-17T19:45:00.097Z,100723.73
2023-03-17T19:47:33.913Z,100720.16
2023-03-17T19:50:02.832Z,100718.92
2023-03-17T19:52:30.575Z,100720.17
2023-03-17T19:55:02.828Z,100717.90
2023-03-17T19:57:32.048Z,100721.33
2023-03-17T20:00:00.597Z,100723.15
2023-03-17T20:02:38.681Z,100720.02
2023-03-17T20:05:08.716Z,100721.64
2023-03-17T20:07:37.282Z,100718.13
2023-03-17T20:10:06.976Z,100715.70
2023-03-17T20:12:39.818Z,100714.89
2023-03-17T20:15:11.974Z,100713.38
2023-03-17T20:17:40.887Z,100713.07
2023-03-17T20:20:13.990Z,100715.30
2023-03-17T20:22:45.082Z,100719.98
2023-03-17T20:25:16.965Z,100718.09
2023-03-17T20:27:49.239Z,100719.55
2023-03-17T20:30:17.024Z,100719.27
2023-03-17T20:32:44.883Z,100720.02
2023-03-17T20:35:12.095Z,100721.67
2023-03-17T20:37:43.034Z,100724.56
2023-03-17T20:40:16.334Z,100721.85
2023-03-17T20:43:28.483Z,100723.90
2023-03-17T20:45:58.708Z,100720.52
2023-03-17T20:48:28.852Z,100719.66
2023-03-17T20:50:58.018Z,100713.14
2023-03-17T20:53:32.493Z,100718.20
2023-03-17T20:56:00.090Z,100714.73
2023-03-17T20:58:28.894Z,100712.84
2023-03-17T21:01:04.383Z,100711.20
2023-03-17T21:03:56.834Z,100708.36
2023-03-17T21:06:28.796Z,100707.91
2023-03-17T21:08:57.424Z,100705.52
2023-03-17T21:11:29.046Z,100706.88
2023-03-17T21:13:57.839Z,100710.52
2023-03-17T21:16:26.139Z,100716.53
2023-03-17T21:18:55.640Z,100717.52
2023-03-17T21:21:22.791Z,100721.32
2023-03-17T21:23:51.355Z,100719.61
2023-03-17T21:26:22.415Z,100717.00
2023-03-17T21:28:52.072Z,100718.76
2023-03-17T21:31:20.856Z,100720.41
2023-03-17T21:33:50.718Z,100727.52
2023-03-17T21:36:18.081Z,100728.50
2023-03-17T21:38:47.491Z,100730.86
2023-03-17T21:41:35.550Z,100733.55
2023-03-17T21:44:09.333Z,100736.94
2023-03-17T21:46:37.884Z,100738.35
2023-03-17T21:49:11.171Z,100738.11
2023-03-17T21:51:38.952Z,100742.16
2023-03-17T21:54:06.198Z,100739.33
2023-03-17T21:56:35.063Z,100744.22
2023-03-17T21:59:03.547Z,100742.52
2023-03-17T22:01:30.838Z,100747.31
2023-03-17T22:04:00.332Z,100747.70
2023-03-17T22:06:29.303Z,100748.66
2023-03-17T22:09:00.100Z,100745.91
2023-03-17T22:11:27.295Z,100744.39
2023-03-17T22:13:55.673Z,100740.56
2023-03-17T22:16:24.397Z,100738.66
2023-03-17T22:18:53.238Z,100740.17
2023-03-17T22:21:21.459Z,100739.48
2023-03-17T22:23:56.506Z,100742.93
2023-03-17T22:26:29.008Z,100742.30
2023-03-17T22:29:06.148Z,100743.23
2023-03-17T22:31:35.437Z,100742.40
2023-03-17T22:34:07.248Z,100745.34
2023-03-17T22:36:36.900Z,100747.89
2023-03-17T22:39:10.004Z,100746.89
2023-03-17T22:41:38.369Z,100749.75
2023-03-17T22:44:09.554Z,100748.82
2023-03-17T22:46:37.880Z,100746.04
2023-03-17T22:49:07.334Z,100745.91
2023-03-17T22:51:41.460Z,100743.31
2023-03-17T22:54:13.155Z,100743.52
2023-03-17T22:56:41.532Z,100741.34
2023-03-17T22:59:10.868Z,100740.64
2023-03-17T23:01:42.593Z,100744.27
2023-03-17T23:04:11.835Z,100742.33
2023-03-17T23:06:41.512Z,100743.54
2023-03-17T23:09:09.047Z,100741.55
2023-03-17T23:11:40.872Z,100743.55
2023-03-17T23:14:14.730Z,100746.77
2023-03-17T23:16:42.694Z,100745.88
2023-03-17T23:19:10.064Z,100744.65
2023-03-17T23:21:39.362Z,100746.16
2023-03-17T23:24:09.400Z,100743.83
2023-03-17T23:26:41.843Z,100742.59
2023-03-17T23:29:10.955Z,100742.09
2023-03-17T23:31:39.211Z,100742.44
2023-03-17T23:34:08.244Z,100744.94
2023-03-17T23:36:39.501Z,100745.10
2023-03-17T23:39:08.404Z,100746.36
2023-03-17T23:41:37.719Z,100750.09
2023-03-17T23:44:09.339Z,100752.02
2023-03-17T23:46:41.068Z,100752.38
2023-03-17T23:49:10.677Z,100748.84
2023-03-17T23:51:40.314Z,100749.77
2023-03-17T23:54:09.223Z,100746.45
2023-03-17T23:56:36.914Z,100746.80
2023-03-17T23:59:07.695Z,100747.14
